Eston, Canada
Current Conditions -  °F | °C
As of 12:00 AM on Saturday 25 Oct 2014 (Local Time) from CYKY Reporting Station
Scattered Clouds Scattered Clouds  
Wind Chill: 30°   Ceiling: Unl
Heat Index: 34°   Visibility: 15mi
Dew Point: 27°   Wind: 5mph
Humidity: 75%   Direction: 200°SSW
Pressure: 30.01"   Gusts: NA
Location:  51.15°N, 108.75°W
Report Text: CYKY 250600Z 20004KT 15SM SCT260 01/M03 A3001 RMK CI4 SLP182
Loading
Personal Weather Stations






























Interactive Weather Map
Tropical Storm Tracking
New forecast layout! Learn more

10-Day Weather Forecast

Advertisements
Track Severe Weather on mobile